Time;durP1;ratioP1;P1;durP2;ratioP2;P2;SDS_P1;SDS_P2;PMS_P1;PMS_P2;Temp;Humidity;BMP_temperature;BMP_pressure;BME280_temperature;BME280_humidity;BME280_pressure;Samples;Min_cycle;Max_cycle;Signal;HPM_P1;HPM_P2
2022/07/27 00:00:18;;;;;;;8.18;5.82;;;;;;;18.34;98.48;99543.03;4243659;33;35675;-84
2022/07/27 00:03:04;;;;;;;8.93;5.80;;;;;;;18.45;97.04;99546.03;4233011;33;36119;-84
2022/07/27 00:05:51;;;;;;;8.18;5.78;;;;;;;18.51;95.90;99546.53;4243075;33;34647;-85
2022/07/27 00:08:37;;;;;;;10.43;6.10;;;;;;;18.43;95.52;99548.38;4243893;33;34884;-86
2022/07/27 00:11:23;;;;;;;9.18;6.10;;;;;;;18.73;93.51;99553.31;4243370;33;34258;-84
2022/07/27 00:14:10;;;;;;;8.05;5.62;;;;;;;18.38;94.95;99552.22;4242875;33;35111;-84
2022/07/27 00:16:57;;;;;;;9.75;7.03;;;;;;;18.22;97.34;99551.53;4242492;33;34696;-86
2022/07/27 00:19:43;;;;;;;8.50;6.22;;;;;;;18.06;98.35;99551.56;4243360;33;32958;-84
2022/07/27 00:22:29;;;;;;;8.85;6.12;;;;;;;18.06;96.66;99554.34;4242820;33;35801;-85
2022/07/27 00:25:16;;;;;;;9.77;6.12;;;;;;;18.10;97.72;99551.63;4242684;33;34479;-83
2022/07/27 00:28:03;;;;;;;9.57;6.00;;;;;;;18.15;97.20;99548.59;4244284;33;35621;-84
2022/07/27 00:30:49;;;;;;;9.77;5.78;;;;;;;18.23;97.37;99557.88;4232767;33;35186;-86
2022/07/27 00:33:36;;;;;;;9.90;5.82;;;;;;;18.09;97.25;99555.59;4243683;33;34500;-85
2022/07/27 00:36:22;;;;;;;8.95;5.78;;;;;;;18.18;96.63;99556.97;4243198;33;35114;-85
2022/07/27 00:39:08;;;;;;;8.77;5.87;;;;;;;18.01;97.67;99557.41;4243146;33;34915;-85
2022/07/27 00:41:55;;;;;;;9.27;6.20;;;;;;;17.80;99.79;99552.19;4243599;33;33043;-86
2022/07/27 00:44:42;;;;;;;9.57;6.07;;;;;;;17.69;99.85;99551.91;4243481;33;34568;-85
2022/07/27 00:47:29;;;;;;;10.38;5.55;;;;;;;17.79;99.60;99552.53;4232676;33;35037;-84
2022/07/27 00:50:15;;;;;;;8.10;5.97;;;;;;;17.84;98.49;99558.59;4244270;33;34757;-84
2022/07/27 00:53:03;;;;;;;9.48;6.25;;;;;;;17.71;99.69;99549.59;4241416;33;34292;-84
2022/07/27 00:55:49;;;;;;;7.62;5.90;;;;;;;17.94;98.27;99548.94;4245033;33;35709;-84
2022/07/27 00:58:37;;;;;;;9.10;5.75;;;;;;;18.20;95.87;99551.87;4243534;33;35833;-83
2022/07/27 01:01:23;;;;;;;8.25;5.18;;;;;;;18.49;92.92;99548.88;4243113;33;35533;-83
2022/07/27 01:04:09;;;;;;;9.15;5.03;;;;;;;18.11;94.84;99551.28;4242353;33;34234;-84
2022/07/27 01:06:56;;;;;;;8.82;5.10;;;;;;;17.90;95.06;99553.59;4242196;33;34600;-83
2022/07/27 01:09:56;;;;;;;7.55;4.90;;;;;;;17.81;94.77;99558.53;4241385;33;35168;-84
2022/07/27 01:12:44;;;;;;;6.57;4.57;;;;;;;18.12;93.23;99557.63;4232616;33;34620;-83
2022/07/27 01:15:31;;;;;;;8.13;4.60;;;;;;;17.73;93.14;99557.53;4242479;33;34201;-83
2022/07/27 01:18:30;;;;;;;9.73;4.72;;;;;;;17.97;92.61;99557.31;4243174;33;34726;-83
2022/07/27 01:21:17;;;;;;;6.45;4.45;;;;;;;17.72;93.09;99564.25;4243160;33;34970;-84
2022/07/27 01:24:04;;;;;;;7.57;4.40;;;;;;;18.56;88.59;99568.44;4243000;33;34709;-85
2022/07/27 01:26:51;;;;;;;8.65;4.53;;;;;;;18.66;87.56;99562.28;4232210;33;34244;-83
2022/07/27 01:29:36;;;;;;;6.43;4.47;;;;;;;18.19;89.36;99563.34;4242790;33;34287;-85
2022/07/27 01:32:23;;;;;;;9.82;4.70;;;;;;;17.73;92.39;99560.28;4242604;33;34750;-84
2022/07/27 01:35:10;;;;;;;9.07;4.28;;;;;;;18.01;91.16;99549.06;4241826;33;34869;-86
2022/07/27 01:37:56;;;;;;;7.72;4.82;;;;;;;17.89;91.83;99558.31;4242640;33;34193;-84
2022/07/27 01:40:43;;;;;;;6.65;4.87;;;;;;;17.68;93.29;99557.81;4242767;33;34603;-84
2022/07/27 01:43:29;;;;;;;8.00;5.07;;;;;;;17.43;95.43;99560.81;4231462;33;33408;-83
2022/07/27 01:46:15;;;;;;;8.95;5.80;;;;;;;17.46;95.55;99551.78;4245304;33;34418;-84
2022/07/27 01:49:02;;;;;;;10.27;6.60;;;;;;;17.47;97.41;99571.97;4233812;33;35056;-86
2022/07/27 01:51:48;;;;;;;10.40;7.00;;;;;;;17.48;98.42;99568.84;4234054;33;34688;-84
2022/07/27 01:54:35;;;;;;;10.75;7.37;;;;;;;17.62;98.69;99562.03;4243657;33;35939;-83
2022/07/27 01:57:21;;;;;;;11.07;7.25;;;;;;;17.17;100.00;99563.31;4242421;33;35602;-85
2022/07/27 02:00:10;;;;;;;10.80;8.10;;;;;;;17.00;100.00;99553.41;4242351;33;35112;-85
2022/07/27 02:02:57;;;;;;;13.18;7.87;;;;;;;17.37;100.00;99551.16;4243109;33;35630;-84
2022/07/27 02:05:43;;;;;;;9.95;7.60;;;;;;;17.32;100.00;99554.19;4242909;33;35032;-83
2022/07/27 02:08:30;;;;;;;12.32;7.60;;;;;;;17.33;100.00;99555.78;4222475;33;34563;-83
2022/07/27 02:14:22;;;;;;;10.38;7.55;;;;;;;17.42;100.00;99545.34;4243914;33;34673;-83
2022/07/27 02:17:08;;;;;;;11.10;7.65;;;;;;;17.62;100.00;99550.97;4244144;33;35081;-85
2022/07/27 02:19:54;;;;;;;11.20;8.10;;;;;;;17.09;100.00;99554.81;4243967;33;34800;-82
2022/07/27 02:22:41;;;;;;;10.95;7.75;;;;;;;17.14;100.00;99547.44;4243391;33;33746;-83
2022/07/27 02:25:27;;;;;;;10.60;8.07;;;;;;;16.82;100.00;99552.91;4243852;33;34309;-82
2022/07/27 02:28:14;;;;;;;9.05;6.78;;;;;;;16.90;100.00;99551.16;4243316;33;34299;-83
2022/07/27 02:31:01;;;;;;;10.27;7.35;;;;;;;17.35;99.91;99558.22;4243970;33;34476;-83
2022/07/27 02:33:47;;;;;;;10.27;7.03;;;;;;;17.18;99.35;99559.37;4233480;33;34454;-84
2022/07/27 02:36:33;;;;;;;11.57;6.70;;;;;;;17.33;99.22;99555.78;4243909;33;34727;-83
2022/07/27 02:39:20;;;;;;;11.32;7.50;;;;;;;17.22;99.28;99560.28;4241904;33;34935;-82
2022/07/27 02:42:06;;;;;;;8.75;6.57;;;;;;;17.17;99.99;99563.31;4242234;33;34339;-83
2022/07/27 02:44:53;;;;;;;11.48;7.00;;;;;;;17.69;96.55;99557.44;4242155;33;34766;-83
2022/07/27 02:47:39;;;;;;;10.93;6.45;;;;;;;17.23;98.19;99557.16;4241812;33;35596;-82
2022/07/27 02:50:25;;;;;;;9.63;6.82;;;;;;;17.93;95.08;99559.22;4242820;33;35616;-83
2022/07/27 02:53:12;;;;;;;9.65;6.90;;;;;;;17.69;96.28;99551.13;4242762;33;34678;-83
2022/07/27 02:55:58;;;;;;;8.50;6.32;;;;;;;17.49;96.95;99545.50;4242389;33;35168;-83
2022/07/27 02:58:44;;;;;;;12.05;6.95;;;;;;;17.46;97.98;99551.78;4245829;33;34695;-84
2022/07/27 03:01:31;;;;;;;9.27;7.05;;;;;;;17.38;97.49;99563.03;4241853;33;34688;-84
2022/07/27 03:04:17;;;;;;;8.90;6.47;;;;;;;17.24;98.47;99557.94;4243883;33;34712;-83
2022/07/27 03:07:04;;;;;;;8.57;5.95;;;;;;;17.27;98.04;99562.78;4244385;33;35046;-83
2022/07/27 03:09:51;;;;;;;8.55;6.35;;;;;;;17.32;97.09;99565.28;4243762;33;34162;-83
2022/07/27 03:12:38;;;;;;;9.82;6.87;;;;;;;17.64;94.86;99559.69;4244092;33;35120;-82
2022/07/27 03:15:25;;;;;;;10.23;6.68;;;;;;;17.28;96.96;99558.84;4243242;33;34651;-83
2022/07/27 03:18:11;;;;;;;8.60;6.15;;;;;;;17.66;96.26;99562.91;4228296;33;32964;-83
2022/07/27 03:20:57;;;;;;;9.43;6.40;;;;;;;18.42;90.05;99561.44;4242877;33;35601;-83
2022/07/27 03:23:44;;;;;;;11.27;6.53;;;;;;;18.20;90.90;99554.66;4243572;33;36123;-83
2022/07/27 03:26:32;;;;;;;8.70;6.03;;;;;;;18.54;89.27;99551.34;4243799;33;34844;-83
2022/07/27 03:29:19;;;;;;;8.52;6.15;;;;;;;18.55;88.49;99547.41;4243912;33;35324;-84
2022/07/27 03:32:05;;;;;;;9.35;6.32;;;;;;;18.71;87.42;99561.19;4244060;33;34336;-83
2022/07/27 03:34:52;;;;;;;10.55;6.37;;;;;;;19.38;83.25;99571.91;4239124;33;34971;-82
2022/07/27 03:37:38;;;;;;;8.55;5.43;;;;;;;19.48;82.03;99562.97;4243654;33;35062;-83
2022/07/27 03:40:28;;;;;;;11.25;5.68;;;;;;;19.53;81.39;99565.44;4245055;33;34169;-83
2022/07/27 03:43:14;;;;;;;12.70;5.47;;;;;;;19.53;81.54;99568.22;4244978;33;34386;-83
2022/07/27 03:46:00;;;;;;;10.80;6.25;;;;;;;19.52;81.61;99572.97;4242926;33;34745;-83
2022/07/27 03:48:47;;;;;;;11.68;6.20;;;;;;;19.41;81.90;99577.56;4243058;33;34573;-83
2022/07/27 03:51:33;;;;;;;8.57;5.85;;;;;;;19.48;81.86;99577.66;4244154;33;34274;-82
2022/07/27 03:54:19;;;;;;;10.33;5.93;;;;;;;19.26;83.04;99572.91;4244393;33;34593;-84
2022/07/27 03:57:06;;;;;;;7.82;5.40;;;;;;;19.54;81.03;99565.03;4245063;33;34906;-83
2022/07/27 03:59:53;;;;;;;9.13;5.62;;;;;;;19.61;81.71;99569.94;4244793;33;34627;-82
2022/07/27 04:02:40;;;;;;;10.68;6.10;;;;;;;19.37;82.71;99575.88;4244337;33;34274;-84
2022/07/27 04:05:26;;;;;;;8.32;6.00;;;;;;;19.60;81.69;99579.41;4243270;33;34227;-83
2022/07/27 04:08:16;;;;;;;7.62;5.70;;;;;;;19.36;82.79;99566.75;4241111;33;34694;-82
2022/07/27 04:11:02;;;;;;;9.32;5.47;;;;;;;19.53;82.40;99573.78;4244081;33;34814;-84
2022/07/27 04:13:50;;;;;;;10.57;5.62;;;;;;;18.86;86.23;99577.75;4245021;33;34745;-83
2022/07/27 04:16:36;;;;;;;9.13;5.85;;;;;;;19.06;84.72;99577.72;4243908;33;34157;-83
2022/07/27 04:19:22;;;;;;;8.95;6.07;;;;;;;19.42;83.58;99583.91;4242590;33;35740;-82
2022/07/27 04:22:08;;;;;;;10.82;5.85;;;;;;;19.35;83.49;99581.78;4240752;33;34977;-83
2022/07/27 04:24:55;;;;;;;10.02;6.35;;;;;;;19.66;82.17;99588.28;4243024;33;34256;-82
2022/07/27 04:27:41;;;;;;;9.05;5.70;;;;;;;19.04;84.49;99591.16;4242162;33;35375;-82
2022/07/27 04:30:28;;;;;;;11.82;6.12;;;;;;;18.33;88.40;99585.03;4242069;33;35884;-83
2022/07/27 04:33:14;;;;;;;9.40;5.65;;;;;;;18.64;87.59;99586.81;4240534;33;34656;-83
2022/07/27 04:36:00;;;;;;;9.98;5.95;;;;;;;18.15;90.08;99590.19;4242474;33;35144;-81
2022/07/27 04:38:46;;;;;;;11.50;5.65;;;;;;;17.92;91.68;99588.09;4238909;33;34692;-78
2022/07/27 04:41:33;;;;;;;11.95;6.45;;;;;;;18.09;91.55;99583.31;4241776;33;35906;-79
2022/07/27 04:44:19;;;;;;;8.80;5.95;;;;;;;18.25;89.20;99580.50;4242217;33;34663;-78
2022/07/27 04:47:05;;;;;;;10.65;6.50;;;;;;;18.61;87.24;99573.69;4240196;33;33795;-79
2022/07/27 04:49:52;;;;;;;8.63;6.30;;;;;;;18.56;87.67;99582.31;4240317;33;34385;-79
2022/07/27 04:52:38;;;;;;;10.38;6.37;;;;;;;18.61;87.39;99579.22;4240304;33;36062;-78
2022/07/27 04:55:24;;;;;;;8.63;5.97;;;;;;;18.55;89.32;99580.69;4237472;33;35330;-79
2022/07/27 04:58:12;;;;;;;8.68;5.93;;;;;;;18.69;87.73;99585.72;4239853;33;33648;-78
2022/07/27 05:00:59;;;;;;;8.43;5.97;;;;;;;18.02;90.88;99592.28;4227148;33;34616;-80
2022/07/27 05:03:45;;;;;;;14.30;6.20;;;;;;;18.59;88.23;99599.03;4240596;33;36515;-79
2022/07/27 05:06:32;;;;;;;9.63;6.12;;;;;;;18.59;87.52;99599.03;4240733;33;34769;-79
2022/07/27 05:09:18;;;;;;;9.32;5.90;;;;;;;18.99;85.07;99599.81;4222620;33;34101;-79
2022/07/27 05:12:07;;;;;;;9.48;5.78;;;;;;;18.51;87.43;99596.47;4240172;33;35677;-79
2022/07/27 05:14:53;;;;;;;10.15;6.30;;;;;;;18.62;87.16;99603.84;4236872;33;32785;-79
2022/07/27 05:17:41;;;;;;;7.72;5.43;;;;;;;18.77;86.21;99604.97;4236041;33;34502;-79
2022/07/27 05:20:27;;;;;;;9.65;6.07;;;;;;;19.92;81.38;99602.19;4241938;33;34330;-80
2022/07/27 05:23:14;;;;;;;8.07;5.47;;;;;;;20.37;77.00;99607.97;4228519;33;34364;-81
2022/07/27 05:26:00;;;;;;;8.13;5.53;;;;;;;19.50;81.25;99618.97;4230413;33;34587;-80
2022/07/27 05:28:47;;;;;;;9.90;5.43;;;;;;;19.19;82.61;99615.28;4244171;33;35490;-79
2022/07/27 05:31:33;;;;;;;9.95;6.03;;;;;;;19.30;83.50;99609.91;4240590;33;34141;-76
2022/07/27 05:34:19;;;;;;;9.07;5.30;;;;;;;19.21;84.35;99607.38;4243263;33;34665;-76
2022/07/27 05:37:06;;;;;;;8.65;5.53;;;;;;;19.69;82.79;99610.56;4243042;33;34487;-76
2022/07/27 05:39:53;;;;;;;8.40;5.53;;;;;;;19.56;83.49;99614.72;4243034;33;35533;-78
2022/07/27 05:42:42;;;;;;;9.32;5.60;;;;;;;19.64;81.58;99608.09;4245234;33;33125;-78
2022/07/27 05:45:29;;;;;;;8.25;5.20;;;;;;;19.47;82.16;99619.72;4243971;33;35692;-78
2022/07/27 05:48:15;;;;;;;9.38;5.05;;;;;;;20.21;78.32;99616.50;4241589;33;34653;-78
2022/07/27 05:51:02;;;;;;;9.65;4.60;;;;;;;20.13;78.80;99617.59;4242533;33;34653;-78
2022/07/27 05:53:48;;;;;;;7.57;4.47;;;;;;;20.99;74.62;99624.25;4241603;33;34249;-78
2022/07/27 05:56:34;;;;;;;9.48;4.85;;;;;;;21.32;70.69;99623.38;4245573;33;35351;-77
2022/07/27 05:59:21;;;;;;;7.95;5.12;;;;;;;21.94;67.76;99626.31;4243216;33;34542;-80
2022/07/27 06:02:07;;;;;;;10.95;5.25;;;;;;;22.18;68.19;99626.87;4242904;33;34903;-77
2022/07/27 06:04:54;;;;;;;9.32;4.95;;;;;;;22.57;66.63;99629.06;4243377;33;35098;-77
2022/07/27 06:07:58;;;;;;;7.12;4.53;;;;;;;23.04;64.86;99632.84;4242158;33;34302;-78
2022/07/27 06:10:46;;;;;;;9.98;5.00;;;;;;;22.80;63.57;99623.19;4243131;33;34527;-78
2022/07/27 06:13:35;;;;;;;8.10;4.85;;;;;;;22.34;65.07;99632.97;4237918;33;35455;-78
2022/07/27 06:16:22;;;;;;;8.60;4.60;;;;;;;21.77;67.23;99640.91;4242986;33;35310;-77
2022/07/27 06:19:09;;;;;;;7.20;4.65;;;;;;;21.95;65.95;99644.63;4243256;33;34744;-78
2022/07/27 06:21:57;;;;;;;8.30;4.75;;;;;;;21.84;66.06;99652.13;4240827;33;35602;-80
2022/07/27 06:24:43;;;;;;;8.13;4.57;;;;;;;22.89;63.13;99640.38;4243343;33;34482;-80
2022/07/27 06:27:29;;;;;;;6.22;4.05;;;;;;;22.48;61.30;99646.16;4242703;33;34146;-79
2022/07/27 06:30:22;;;;;;;5.93;4.00;;;;;;;23.28;57.58;99637.69;4227813;33;35640;-80
2022/07/27 06:33:08;;;;;;;7.28;3.90;;;;;;;22.29;59.08;99640.91;4241279;33;35730;-80
2022/07/27 06:35:56;;;;;;;7.35;4.20;;;;;;;23.49;55.19;99636.13;4240627;33;34682;-80
2022/07/27 06:38:43;;;;;;;5.65;4.20;;;;;;;22.84;55.46;99637.94;4241188;33;34157;-79
2022/07/27 06:41:29;;;;;;;8.77;3.90;;;;;;;23.28;56.68;99636.88;4245585;33;34269;-80
2022/07/27 06:44:16;;;;;;;6.55;3.30;;;;;;;23.88;54.36;99638.94;4238976;33;34520;-81
2022/07/27 06:47:02;;;;;;;6.82;3.87;;;;;;;23.98;51.31;99640.13;4236037;33;35575;-82
2022/07/27 06:49:48;;;;;;;7.40;3.50;;;;;;;24.19;50.95;99628.91;4242396;33;35240;-79
2022/07/27 06:52:35;;;;;;;6.25;3.65;;;;;;;24.30;50.89;99625.25;4244236;33;34280;-81
2022/07/27 06:55:21;;;;;;;4.87;3.22;;;;;;;24.26;51.50;99627.28;4243097;33;34711;-82
2022/07/27 06:58:08;;;;;;;6.97;3.30;;;;;;;23.84;48.75;99618.53;4240723;33;34585;-81
2022/07/27 07:00:54;;;;;;;7.50;3.20;;;;;;;24.71;49.12;99616.34;4244547;33;34262;-81
2022/07/27 07:03:40;;;;;;;4.95;2.72;;;;;;;25.01;46.42;99629.78;4240261;33;33692;-80
2022/07/27 07:06:27;;;;;;;4.45;2.60;;;;;;;25.60;45.07;99618.59;4241719;33;34970;-79
2022/07/27 07:09:13;;;;;;;5.43;2.85;;;;;;;25.71;43.05;99626.91;4243104;33;35423;-77
2022/07/27 07:12:01;;;;;;;4.45;2.42;;;;;;;25.15;41.64;99626.91;4247134;33;34417;-80
2022/07/27 07:14:47;;;;;;;6.10;3.15;;;;;;;25.62;42.33;99621.00;4246737;33;34384;-80
2022/07/27 07:17:34;;;;;;;6.45;2.90;;;;;;;25.64;41.36;99612.94;4248796;33;34989;-81
2022/07/27 07:20:20;;;;;;;3.80;2.53;;;;;;;25.31;41.33;99615.22;4251089;33;34646;-83
2022/07/27 07:23:07;;;;;;;5.03;2.78;;;;;;;25.19;41.63;99610.88;4245214;33;34028;-83
2022/07/27 07:25:53;;;;;;;5.45;2.83;;;;;;;26.12;40.46;99609.31;4236663;33;35634;-81
2022/07/27 07:28:40;;;;;;;4.95;2.47;;;;;;;25.67;40.99;99606.50;4245650;33;35019;-81
2022/07/27 07:31:26;;;;;;;8.07;2.97;;;;;;;26.16;39.99;99615.69;4241410;33;34757;-82
2022/07/27 07:34:13;;;;;;;5.15;2.67;;;;;;;26.42;41.51;99603.75;4243674;33;33886;-80
2022/07/27 07:36:59;;;;;;;6.12;2.72;;;;;;;26.57;38.96;99606.41;4244778;33;35704;-80
2022/07/27 07:39:46;;;;;;;4.82;2.90;;;;;;;26.51;37.29;99608.09;4243586;33;35109;-78
2022/07/27 07:42:49;;;;;;;5.93;3.45;;;;;;;26.87;36.73;99600.78;4241091;33;34737;-78
2022/07/27 07:45:36;;;;;;;6.07;3.00;;;;;;;25.76;37.58;99595.59;4239563;33;34231;-77
2022/07/27 07:48:38;;;;;;;5.22;2.92;;;;;;;25.91;37.41;99599.88;4253808;33;33339;-80
2022/07/27 07:51:24;;;;;;;5.78;3.10;;;;;;;26.00;36.41;99597.37;4247374;33;35109;-80
2022/07/27 07:54:11;;;;;;;8.38;4.57;;;;;;;25.97;37.07;99592.59;4247265;33;35567;-79
2022/07/27 07:56:57;;;;;;;7.28;4.12;;;;;;;25.70;35.43;99594.44;4247234;33;34692;-82
2022/07/27 07:59:44;;;;;;;5.78;3.40;;;;;;;26.33;35.77;99595.03;4236350;33;35597;-80
2022/07/27 08:02:30;;;;;;;6.15;3.97;;;;;;;26.48;34.37;99595.66;4244890;33;35029;-81
2022/07/27 08:05:18;;;;;;;5.18;3.22;;;;;;;26.36;33.36;99590.59;4246635;33;35770;-81
2022/07/27 08:08:05;;;;;;;7.25;3.42;;;;;;;26.74;35.41;99594.12;4233102;33;33847;-78
2022/07/27 08:10:52;;;;;;;5.12;3.67;;;;;;;26.84;35.20;99590.41;4246605;33;34688;-78
2022/07/27 08:13:38;;;;;;;5.22;3.75;;;;;;;27.46;32.79;99582.63;4246286;33;35050;-78
2022/07/27 08:16:25;;;;;;;9.23;5.65;;;;;;;27.55;33.96;99582.06;4245492;33;35488;-78
2022/07/27 08:19:11;;;;;;;8.98;5.65;;;;;;;27.56;33.61;99586.50;4235025;33;33723;-78
2022/07/27 08:21:59;;;;;;;9.52;5.37;;;;;;;28.00;32.65;99581.72;4244233;33;33640;-78
2022/07/27 08:24:45;;;;;;;6.78;5.82;;;;;;;28.14;32.95;99581.44;4243958;33;36039;-78
2022/07/27 08:27:32;;;;;;;8.13;5.32;;;;;;;28.60;31.37;99579.72;4244344;33;35838;-77
2022/07/27 08:30:25;;;;;;;10.15;7.40;;;;;;;28.24;37.39;99590.91;4246578;33;34731;-78
2022/07/27 08:33:13;;;;;;;11.57;10.07;;;;;;;27.89;31.87;99569.84;4245027;33;34604;-76
2022/07/27 08:36:00;;;;;;;8.80;7.00;;;;;;;28.22;32.43;99570.84;4246440;33;34996;-80
2022/07/27 08:38:46;;;;;;;18.77;14.98;;;;;;;27.84;32.00;99573.19;4246842;33;34722;-81
2022/07/27 08:41:37;;;;;;;14.32;12.07;;;;;;;27.83;30.57;99571.56;4245080;33;35100;-79
2022/07/27 08:44:28;;;;;;;14.87;13.00;;;;;;;28.33;31.04;99582.69;4245564;33;35588;-80
2022/07/27 08:47:15;;;;;;;10.75;8.77;;;;;;;29.11;28.77;99574.56;4235774;33;36027;-84
2022/07/27 08:50:02;;;;;;;8.27;5.35;;;;;;;28.37;32.12;99569.31;4241714;33;34303;-80
2022/07/27 08:53:02;;;;;;;27.40;23.90;;;;;;;28.40;32.62;99585.34;4242649;33;34345;-78
2022/07/27 08:55:49;;;;;;;22.10;19.90;;;;;;;28.14;29.38;99575.00;4241837;33;34628;-78
2022/07/27 08:58:35;;;;;;;17.42;15.07;;;;;;;28.32;29.06;99572.66;4243199;33;34936;-80
2022/07/27 09:01:21;;;;;;;16.40;14.48;;;;;;;28.55;29.43;99571.78;4249892;33;35018;-80
2022/07/27 09:04:08;;;;;;;10.63;8.10;;;;;;;28.56;27.95;99573.38;4245783;33;35255;-80
2022/07/27 09:06:55;;;;;;;9.20;6.65;;;;;;;29.75;29.21;99568.59;4246526;33;34636;-81
2022/07/27 09:09:45;;;;;;;8.38;6.60;;;;;;;29.32;29.36;99566.84;4246869;33;36967;-77
2022/07/27 09:12:32;;;;;;;;;;;;;;;29.98;27.96;99568.38;4235311;33;35666;-80
2022/07/27 09:15:18;;;;;;;10.88;6.85;;;;;;;30.16;28.25;99564.25;4245968;33;34169;-82
2022/07/27 09:18:17;;;;;;;8.95;6.93;;;;;;;29.95;27.20;99563.59;4242871;33;35559;-83
2022/07/27 09:21:09;;;;;;;8.82;7.32;;;;;;;29.59;27.44;99575.81;4242939;33;35056;-80
2022/07/27 09:24:14;;;;;;;9.55;7.50;;;;;;;29.94;27.36;99556.38;4240392;33;34310;-79
2022/07/27 09:27:29;;;;;;;12.68;7.95;;;;;;;30.02;27.55;99568.25;4240960;33;34218;-81
2022/07/27 09:30:17;;;;;;;10.68;8.20;;;;;;;30.33;26.97;99562.97;4228841;33;33444;-81
2022/07/27 09:33:06;;;;;;;9.40;7.57;;;;;;;30.41;26.19;99560.75;4244024;33;34968;-79
2022/07/27 09:35:59;;;;;;;12.07;8.15;;;;;;;30.23;25.94;99556.41;4232989;33;34624;-79
2022/07/27 09:39:04;;;;;;;8.80;7.35;;;;;;;29.36;27.19;99559.06;4233438;33;34158;-80
2022/07/27 09:41:56;;;;;;;9.98;7.87;;;;;;;30.20;26.76;99551.63;4233845;33;35559;-82
2022/07/27 09:44:42;;;;;;;10.55;7.40;;;;;;;30.68;25.08;99551.84;4232630;33;35102;-81
2022/07/27 09:47:31;;;;;;;11.45;7.05;;;;;;;29.98;25.70;99556.28;4243014;33;35283;-81
2022/07/27 09:50:22;;;;;;;9.15;7.30;;;;;;;30.55;27.24;99557.50;4241840;33;35096;-80
2022/07/27 09:53:20;;;;;;;8.13;7.25;;;;;;;30.82;26.39;99551.44;4242013;33;34599;-82
2022/07/27 09:56:30;;;;;;;10.20;8.15;;;;;;;31.02;26.15;99556.06;4243266;33;35045;-84
2022/07/27 09:59:18;;;;;;;9.63;7.57;;;;;;;31.08;25.84;99552.25;4235689;33;34996;-82
2022/07/27 10:02:05;;;;;;;9.07;6.43;;;;;;;31.56;24.93;99553.09;4246420;33;34470;-82
2022/07/27 10:04:51;;;;;;;7.80;6.80;;;;;;;31.91;24.75;99558.00;4245081;33;35629;-81
2022/07/27 10:07:38;;;;;;;10.48;6.60;;;;;;;31.99;23.90;99556.47;4238581;33;36948;-81
2022/07/27 10:10:24;;;;;;;10.50;6.80;;;;;;;31.03;23.99;99549.97;4234641;33;35547;-80
2022/07/27 10:13:11;;;;;;;8.60;7.00;;;;;;;31.18;23.70;99552.34;4247636;33;34163;-80
2022/07/27 10:19:15;;;;;;;12.98;9.70;;;;;;;31.77;24.32;99550.78;4246864;33;35052;-81
2022/07/27 10:22:01;;;;;;;13.88;8.98;;;;;;;32.36;23.25;99546.22;4246294;33;34893;-81
2022/07/27 10:24:57;;;;;;;10.05;8.75;;;;;;;32.18;22.50;99554.59;4247014;33;35097;-81
2022/07/27 10:28:06;;;;;;;10.57;9.48;;;;;;;32.30;23.32;99542.38;4246161;33;34619;-81
2022/07/27 10:31:18;;;;;;;9.80;8.07;;;;;;;32.37;24.22;99542.13;4235577;33;34855;-81
2022/07/27 10:34:07;;;;;;;8.88;7.40;;;;;;;32.51;22.59;99534.38;4245645;33;34661;-81
2022/07/27 10:36:54;;;;;;;8.25;6.62;;;;;;;32.16;23.38;99535.22;4244289;33;34107;-81
2022/07/27 10:39:42;;;;;;;13.45;6.55;;;;;;;31.86;22.47;99530.22;4244914;33;35692;-81
2022/07/27 10:42:29;;;;;;;9.20;7.72;;;;;;;32.53;23.48;99532.62;4243622;33;35920;-82
2022/07/27 10:45:16;;;;;;;10.07;7.37;;;;;;;33.06;22.30;99532.56;4232117;33;34354;-82
2022/07/27 10:48:03;;;;;;;8.40;7.18;;;;;;;32.94;22.60;99524.94;4237199;33;34153;-83
2022/07/27 10:50:49;;;;;;;9.25;7.65;;;;;;;32.80;21.69;99529.13;4242068;33;34687;-83
2022/07/27 10:53:39;;;;;;;9.82;7.43;;;;;;;33.24;21.45;99525.38;4234001;33;34408;-83
2022/07/27 10:56:46;;;;;;;8.05;6.57;;;;;;;32.74;21.75;99522.50;4238595;33;35459;-84
2022/07/27 10:59:39;;;;;;;9.35;7.10;;;;;;;33.37;20.99;99526.03;4233161;33;34249;-83
2022/07/27 11:02:45;;;;;;;7.80;6.65;;;;;;;33.45;20.73;99527.31;4243866;33;35361;-80
2022/07/27 11:05:32;;;;;;;8.65;6.70;;;;;;;31.63;21.89;99505.97;4243677;33;34936;-84
2022/07/27 11:08:41;;;;;;;9.18;6.60;;;;;;;33.34;21.69;99521.28;4246007;33;35432;-85
2022/07/27 11:11:36;;;;;;;9.32;6.57;;;;;;;33.61;22.59;99519.78;4235912;33;34119;-82
2022/07/27 11:14:27;;;;;;;8.93;7.03;;;;;;;34.23;21.56;99508.88;4244506;33;34724;-86
2022/07/27 11:17:20;;;;;;;9.15;6.87;;;;;;;34.06;19.94;99512.53;4246493;33;36088;-87
2022/07/27 11:20:26;;;;;;;10.87;7.33;;;;;;;33.78;20.31;99509.69;4246483;33;35585;-85
2022/07/27 11:23:18;;;;;;;7.57;6.30;;;;;;;32.36;22.28;99512.19;4246308;33;34234;-90
2022/07/27 11:26:26;;;;;;;8.23;7.00;;;;;;;33.39;20.92;99506.47;4246834;33;34724;-86
2022/07/27 11:29:14;;;;;;;8.38;7.05;;;;;;;34.41;20.39;99502.38;4151269;33;3111484;-86
2022/07/27 11:32:02;;;;;;;7.55;6.75;;;;;;;34.49;20.39;99495.03;4246327;33;35509;-82
2022/07/27 11:34:49;;;;;;;10.80;6.78;;;;;;;33.85;19.10;99491.53;4243507;33;34064;-83
2022/07/27 11:37:36;;;;;;;7.78;6.22;;;;;;;33.43;19.73;99494.97;4243889;33;35201;-84
2022/07/27 11:40:40;;;;;;;8.60;6.55;;;;;;;33.11;20.67;99497.91;4240832;33;35129;-83
2022/07/27 11:43:47;;;;;;;6.60;5.80;;;;;;;33.19;20.71;99492.72;4240801;33;35495;-82
2022/07/27 11:46:41;;;;;;;10.27;6.82;;;;;;;33.23;20.34;99496.19;4242494;33;34237;-84
2022/07/27 11:49:29;;;;;;;7.60;6.70;;;;;;;32.09;21.40;99497.84;4242866;33;35625;-85
2022/07/27 11:52:16;;;;;;;8.75;6.62;;;;;;;30.78;23.01;99499.03;4244788;33;34175;-86
2022/07/27 11:55:03;;;;;;;7.60;6.40;;;;;;;31.12;21.82;99499.13;4247104;33;35679;-85
2022/07/27 11:57:49;;;;;;;8.25;6.22;;;;;;;32.23;20.90;99502.97;4247676;33;34419;-87
2022/07/27 12:00:40;;;;;;;8.75;6.85;;;;;;;32.24;20.94;99496.81;4230508;33;34585;-84
2022/07/27 12:03:29;;;;;;;9.40;7.25;;;;;;;32.37;22.15;99490.31;4239500;33;35238;-83
2022/07/27 12:06:33;;;;;;;10.02;7.28;;;;;;;31.76;22.75;99484.03;4240742;33;34701;-82
2022/07/27 12:09:20;;;;;;;7.68;6.80;;;;;;;33.32;21.01;99487.69;4226694;33;34262;-82
2022/07/27 12:12:14;;;;;;;9.45;7.25;;;;;;;34.01;21.48;99476.97;4242657;33;34179;-81
2022/07/27 12:15:04;;;;;;;7.87;6.40;;;;;;;34.41;19.97;99476.78;4244030;33;35064;-82
2022/07/27 12:18:10;;;;;;;7.75;6.95;;;;;;;34.95;19.55;99473.38;4242426;33;34595;-82
2022/07/27 12:20:56;;;;;;;10.75;6.78;;;;;;;32.82;20.90;99469.91;4245143;33;34238;-83
2022/07/27 12:23:52;;;;;;;7.82;6.50;;;;;;;34.25;19.69;99462.91;4237920;33;34298;-82
2022/07/27 12:26:41;;;;;;;8.38;6.28;;;;;;;34.54;19.88;99459.47;4239983;33;34997;-84
2022/07/27 12:29:27;;;;;;;9.32;6.43;;;;;;;34.86;18.73;99463.62;4242060;33;34624;-84
2022/07/27 12:32:14;;;;;;;7.78;5.82;;;;;;;33.65;19.34;99460.78;4244869;33;33065;-84
2022/07/27 12:35:14;;;;;;;9.30;5.70;;;;;;;33.26;20.96;99460.41;4235622;33;33286;-83
2022/07/27 12:38:06;;;;;;;6.18;5.10;;;;;;;33.99;20.61;99446.19;4236437;33;35463;-84
2022/07/27 12:40:54;;;;;;;8.90;6.45;;;;;;;35.02;19.94;99450.28;4238459;33;34621;-81
2022/07/27 12:44:11;;;;;;;7.57;5.68;;;;;;;33.62;19.89;99450.34;4230836;33;33017;-80
2022/07/27 12:47:00;;;;;;;7.78;6.30;;;;;;;33.21;20.32;99444.75;4238113;33;34397;-81
2022/07/27 12:50:09;;;;;;;7.50;6.12;;;;;;;34.39;20.58;99439.47;4236545;33;35386;-83
2022/07/27 12:52:55;;;;;;;7.43;6.22;;;;;;;34.17;20.14;99441.75;4238609;33;34084;-82
2022/07/27 12:55:42;;;;;;;8.85;6.22;;;;;;;33.63;20.78;99434.88;4227369;33;35266;-80
2022/07/27 12:58:30;;;;;;;7.35;5.97;;;;;;;32.19;21.43;99443.59;4240438;33;34620;-79
2022/07/27 13:01:16;;;;;;;8.55;6.25;;;;;;;31.94;21.80;99440.94;4239853;33;33963;-80
2022/07/27 13:04:02;;;;;;;7.07;5.50;;;;;;;31.69;22.49;99431.28;4236354;33;35595;-80
2022/07/27 13:06:49;;;;;;;7.35;5.90;;;;;;;31.92;22.19;99432.09;4239940;33;34112;-84
2022/07/27 13:09:35;;;;;;;7.15;5.47;;;;;;;31.00;22.63;99432.06;4239131;33;34716;-79
2022/07/27 13:12:42;;;;;;;7.85;5.80;;;;;;;31.24;22.62;99426.78;4238401;33;34930;-80
2022/07/27 13:15:28;;;;;;;7.62;5.35;;;;;;;32.17;22.70;99426.25;4238796;33;34640;-80
2022/07/27 13:18:15;;;;;;;7.03;5.62;;;;;;;32.88;21.47;99428.28;4237800;33;34701;-80